sensor_id;sensor_type;location;lat;lon;timestamp;pressure;altitude;pressure_sealevel;temperature;humidity
65376;BME280;51976;47.332;9.404;2022-11-15T00:01:46;92683.13;;;18.34;45.02
65376;BME280;51976;47.332;9.404;2022-11-15T00:04:12;92679.28;;;18.35;45.12
65376;BME280;51976;47.332;9.404;2022-11-15T00:06:37;92667.69;;;18.38;45.00
65376;BME280;51976;47.332;9.404;2022-11-15T00:09:03;92664.50;;;18.36;44.95
65376;BME280;51976;47.332;9.404;2022-11-15T00:11:28;92664.84;;;18.35;45.19
65376;BME280;51976;47.332;9.404;2022-11-15T00:13:55;92660.19;;;18.35;44.88
65376;BME280;51976;47.332;9.404;2022-11-15T00:16:21;92656.66;;;18.35;44.97
65376;BME280;51976;47.332;9.404;2022-11-15T00:18:46;92663.59;;;18.32;45.34
65376;BME280;51976;47.332;9.404;2022-11-15T00:21:13;92660.97;;;18.36;45.21
65376;BME280;51976;47.332;9.404;2022-11-15T00:23:39;92666.66;;;18.31;45.04
65376;BME280;51976;47.332;9.404;2022-11-15T00:26:04;92660.41;;;18.30;44.92
65376;BME280;51976;47.332;9.404;2022-11-15T00:28:30;92660.88;;;18.32;44.97
65376;BME280;51976;47.332;9.404;2022-11-15T00:31:03;92658.91;;;18.33;45.14
65376;BME280;51976;47.332;9.404;2022-11-15T00:33:29;92656.53;;;18.31;45.11
65376;BME280;51976;47.332;9.404;2022-11-15T00:36:00;92659.38;;;18.35;45.13
65376;BME280;51976;47.332;9.404;2022-11-15T00:38:25;92654.72;;;18.35;44.81
65376;BME280;51976;47.332;9.404;2022-11-15T00:40:55;92658.13;;;18.32;44.91
65376;BME280;51976;47.332;9.404;2022-11-15T00:43:20;92646.28;;;18.28;45.38
65376;BME280;51976;47.332;9.404;2022-11-15T00:45:45;92652.31;;;18.34;45.04
65376;BME280;51976;47.332;9.404;2022-11-15T00:48:11;92655.06;;;18.34;45.05
65376;BME280;51976;47.332;9.404;2022-11-15T00:50:36;92653.34;;;18.29;45.05
65376;BME280;51976;47.332;9.404;2022-11-15T00:53:01;92638.56;;;18.30;44.83
65376;BME280;51976;47.332;9.404;2022-11-15T00:55:27;92642.44;;;18.29;44.80
65376;BME280;51976;47.332;9.404;2022-11-15T00:57:52;92636.31;;;18.32;45.00
65376;BME280;51976;47.332;9.404;2022-11-15T01:00:18;92635.94;;;18.34;44.89
65376;BME280;51976;47.332;9.404;2022-11-15T01:02:43;92637.34;;;18.40;44.79
65376;BME280;51976;47.332;9.404;2022-11-15T01:05:08;92630.97;;;18.36;44.88
65376;BME280;51976;47.332;9.404;2022-11-15T01:07:34;92640.16;;;18.31;45.05
65376;BME280;51976;47.332;9.404;2022-11-15T01:09:59;92635.94;;;18.34;44.93
65376;BME280;51976;47.332;9.404;2022-11-15T01:12:24;92638.09;;;18.28;44.93
65376;BME280;51976;47.332;9.404;2022-11-15T01:14:50;92630.06;;;18.32;44.93
65376;BME280;51976;47.332;9.404;2022-11-15T01:17:16;92632.88;;;18.35;44.62
65376;BME280;51976;47.332;9.404;2022-11-15T01:19:41;92629.03;;;18.36;44.95
65376;BME280;51976;47.332;9.404;2022-11-15T01:22:06;92628.91;;;18.33;44.75
65376;BME280;51976;47.332;9.404;2022-11-15T01:24:32;92620.03;;;18.36;44.72
65376;BME280;51976;47.332;9.404;2022-11-15T01:26:57;92621.88;;;18.32;44.75
65376;BME280;51976;47.332;9.404;2022-11-15T01:29:22;92619.56;;;18.34;44.80
65376;BME280;51976;47.332;9.404;2022-11-15T01:31:48;92613.22;;;18.30;45.02
65376;BME280;51976;47.332;9.404;2022-11-15T01:34:13;92604.00;;;18.34;44.63
65376;BME280;51976;47.332;9.404;2022-11-15T01:36:40;92605.50;;;18.32;44.76
65376;BME280;51976;47.332;9.404;2022-11-15T01:39:05;92592.97;;;18.31;45.02
65376;BME280;51976;47.332;9.404;2022-11-15T01:41:32;92593.31;;;18.29;44.67
65376;BME280;51976;47.332;9.404;2022-11-15T01:44:39;92583.53;;;18.28;45.04
65376;BME280;51976;47.332;9.404;2022-11-15T01:47:08;92580.25;;;18.35;44.60
65376;BME280;51976;47.332;9.404;2022-11-15T01:49:38;92578.91;;;18.41;44.43
65376;BME280;51976;47.332;9.404;2022-11-15T01:52:07;92580.13;;;18.31;44.86
65376;BME280;51976;47.332;9.404;2022-11-15T01:54:34;92589.81;;;18.41;44.42
65376;BME280;51976;47.332;9.404;2022-11-15T01:57:02;92584.03;;;18.42;44.72
65376;BME280;51976;47.332;9.404;2022-11-15T01:59:29;92580.03;;;18.40;44.44
65376;BME280;51976;47.332;9.404;2022-11-15T02:01:55;92580.38;;;18.38;44.43
65376;BME280;51976;47.332;9.404;2022-11-15T02:04:32;92581.03;;;18.35;44.50
65376;BME280;51976;47.332;9.404;2022-11-15T02:06:58;92572.84;;;18.35;44.62
65376;BME280;51976;47.332;9.404;2022-11-15T02:09:25;92577.03;;;18.33;44.73
65376;BME280;51976;47.332;9.404;2022-11-15T02:11:50;92580.38;;;18.38;44.40
65376;BME280;51976;47.332;9.404;2022-11-15T02:14:19;92576.03;;;18.37;44.42
65376;BME280;51976;47.332;9.404;2022-11-15T02:16:59;92571.84;;;18.40;44.38
65376;BME280;51976;47.332;9.404;2022-11-15T02:19:55;92558.53;;;18.38;44.58
65376;BME280;51976;47.332;9.404;2022-11-15T02:22:40;92564.00;;;18.38;44.43
65376;BME280;51976;47.332;9.404;2022-11-15T02:25:37;92560.94;;;18.40;44.46
65376;BME280;51976;47.332;9.404;2022-11-15T02:28:36;92553.06;;;18.38;44.44
65376;BME280;51976;47.332;9.404;2022-11-15T02:31:32;92540.09;;;18.35;44.41
65376;BME280;51976;47.332;9.404;2022-11-15T02:35:02;92537.63;;;18.42;44.57
65376;BME280;51976;47.332;9.404;2022-11-15T02:37:39;92542.28;;;18.42;44.13
65376;BME280;51976;47.332;9.404;2022-11-15T02:43:11;92534.56;;;18.44;44.32
65376;BME280;51976;47.332;9.404;2022-11-15T02:46:05;92536.03;;;18.41;44.52
65376;BME280;51976;47.332;9.404;2022-11-15T02:48:33;92534.56;;;18.44;44.46
65376;BME280;51976;47.332;9.404;2022-11-15T02:51:00;92527.16;;;18.44;44.24
65376;BME280;51976;47.332;9.404;2022-11-15T02:53:26;92527.16;;;18.44;44.58
65376;BME280;51976;47.332;9.404;2022-11-15T02:55:53;92529.09;;;18.44;44.45
65376;BME280;51976;47.332;9.404;2022-11-15T02:58:51;92532.97;;;18.43;44.30
65376;BME280;51976;47.332;9.404;2022-11-15T03:01:51;92525.56;;;18.43;44.46
65376;BME280;51976;47.332;9.404;2022-11-15T03:04:43;92527.50;;;18.43;44.39
65376;BME280;51976;47.332;9.404;2022-11-15T03:07:29;92536.16;;;18.45;44.11
65376;BME280;51976;47.332;9.404;2022-11-15T03:10:10;92540.03;;;18.44;44.13
65376;BME280;51976;47.332;9.404;2022-11-15T03:12:45;92545.94;;;18.46;44.32
65376;BME280;51976;47.332;9.404;2022-11-15T03:15:21;92545.16;;;18.45;44.19
65376;BME280;51976;47.332;9.404;2022-11-15T03:18:01;92545.94;;;18.46;44.30
65376;BME280;51976;47.332;9.404;2022-11-15T03:20:27;92547.41;;;18.43;44.33
65376;BME280;51976;47.332;9.404;2022-11-15T03:22:58;92544.69;;;18.43;44.35
65376;BME280;51976;47.332;9.404;2022-11-15T03:25:28;92543.88;;;18.43;44.15
65376;BME280;51976;47.332;9.404;2022-11-15T03:27:57;92545.81;;;18.42;44.34
65376;BME280;51976;47.332;9.404;2022-11-15T03:30:24;92543.75;;;18.39;44.27
65376;BME280;51976;47.332;9.404;2022-11-15T03:32:54;92546.03;;;18.37;44.39
65376;BME280;51976;47.332;9.404;2022-11-15T03:35:25;92541.38;;;18.38;44.39
65376;BME280;51976;47.332;9.404;2022-11-15T03:37:59;92541.38;;;18.38;44.32
65376;BME280;51976;47.332;9.404;2022-11-15T03:40:33;92533.63;;;18.40;44.21
65376;BME280;51976;47.332;9.404;2022-11-15T03:43:10;92533.50;;;18.36;44.22
65376;BME280;51976;47.332;9.404;2022-11-15T03:45:45;92532.63;;;18.32;44.61
65376;BME280;51976;47.332;9.404;2022-11-15T03:48:14;92524.66;;;18.39;44.20
65376;BME280;51976;47.332;9.404;2022-11-15T03:50:42;92526.25;;;18.40;44.28
65376;BME280;51976;47.332;9.404;2022-11-15T03:53:08;92526.72;;;18.42;44.04
65376;BME280;51976;47.332;9.404;2022-11-15T03:55:34;92528.19;;;18.40;44.24
65376;BME280;51976;47.332;9.404;2022-11-15T03:58:01;92535.09;;;18.37;44.19
65376;BME280;51976;47.332;9.404;2022-11-15T04:00:27;92530.31;;;18.34;44.31
65376;BME280;51976;47.332;9.404;2022-11-15T04:02:53;92530.31;;;18.34;44.40
65376;BME280;51976;47.332;9.404;2022-11-15T04:05:18;92528.38;;;18.35;44.32
65376;BME280;51976;47.332;9.404;2022-11-15T04:07:43;92527.38;;;18.39;43.85
65376;BME280;51976;47.332;9.404;2022-11-15T04:10:12;92527.38;;;18.39;44.02
65376;BME280;51976;47.332;9.404;2022-11-15T04:12:40;92527.16;;;18.32;44.40
65376;BME280;51976;47.332;9.404;2022-11-15T04:15:13;92527.38;;;18.39;44.20
65376;BME280;51976;47.332;9.404;2022-11-15T04:17:43;92524.19;;;18.37;44.16
65376;BME280;51976;47.332;9.404;2022-11-15T04:20:26;92522.25;;;18.38;44.05
65376;BME280;51976;47.332;9.404;2022-11-15T04:23:14;92520.66;;;18.37;44.22
65376;BME280;51976;47.332;9.404;2022-11-15T04:26:06;92518.72;;;18.37;44.27
65376;BME280;51976;47.332;9.404;2022-11-15T04:28:33;92518.28;;;18.35;44.25
65376;BME280;51976;47.332;9.404;2022-11-15T04:30:58;92520.34;;;18.38;43.88
65376;BME280;51976;47.332;9.404;2022-11-15T04:33:24;92509.19;;;18.43;43.89
65376;BME280;51976;47.332;9.404;2022-11-15T04:35:49;92503.94;;;18.38;43.87
65376;BME280;51976;47.332;9.404;2022-11-15T04:38:35;92499.75;;;18.41;43.85
65376;BME280;51976;47.332;9.404;2022-11-15T04:41:03;92501.69;;;18.40;44.07
65376;BME280;51976;47.332;9.404;2022-11-15T04:43:29;92501.56;;;18.37;43.92
65376;BME280;51976;47.332;9.404;2022-11-15T04:45:54;92504.06;;;18.42;44.13
65376;BME280;51976;47.332;9.404;2022-11-15T04:48:19;92499.41;;;18.42;44.10
65376;BME280;51976;47.332;9.404;2022-11-15T04:50:47;92502.81;;;18.39;44.09
65376;BME280;51976;47.332;9.404;2022-11-15T04:53:13;92502.81;;;18.39;44.09
65376;BME280;51976;47.332;9.404;2022-11-15T04:55:38;92501.22;;;18.38;43.93
65376;BME280;51976;47.332;9.404;2022-11-15T04:58:03;92493.97;;;18.42;44.20
65376;BME280;51976;47.332;9.404;2022-11-15T05:00:30;92491.91;;;18.39;43.83
65376;BME280;51976;47.332;9.404;2022-11-15T05:02:56;92487.72;;;18.42;43.89
65376;BME280;51976;47.332;9.404;2022-11-15T05:05:42;92483.84;;;18.43;44.06
65376;BME280;51976;47.332;9.404;2022-11-15T05:08:07;92477.13;;;18.40;44.00
65376;BME280;51976;47.332;9.404;2022-11-15T05:10:33;92486.91;;;18.41;44.30
65376;BME280;51976;47.332;9.404;2022-11-15T05:12:58;92486.09;;;18.41;43.81
65376;BME280;51976;47.332;9.404;2022-11-15T05:15:24;92491.69;;;18.44;44.02
65376;BME280;51976;47.332;9.404;2022-11-15T05:17:49;92490.91;;;18.44;43.69
65376;BME280;51976;47.332;9.404;2022-11-15T05:20:14;92479.19;;;18.43;43.81
65376;BME280;51976;47.332;9.404;2022-11-15T05:22:40;92483.72;;;18.39;43.87
65376;BME280;51976;47.332;9.404;2022-11-15T05:25:06;92484.63;;;18.43;43.79
65376;BME280;51976;47.332;9.404;2022-11-15T05:27:33;92474.41;;;18.40;43.74
65376;BME280;51976;47.332;9.404;2022-11-15T05:29:58;92475.41;;;18.36;43.84
65376;BME280;51976;47.332;9.404;2022-11-15T05:32:23;92470.41;;;18.38;43.76
65376;BME280;51976;47.332;9.404;2022-11-15T05:34:49;92471.22;;;18.38;43.95
65376;BME280;51976;47.332;9.404;2022-11-15T05:37:15;92468.94;;;18.40;43.70
65376;BME280;51976;47.332;9.404;2022-11-15T05:39:41;92467.69;;;18.38;43.73
65376;BME280;51976;47.332;9.404;2022-11-15T05:42:10;92468.13;;;18.40;43.80
65376;BME280;51976;47.332;9.404;2022-11-15T05:44:38;92466.22;;;18.40;44.02
65376;BME280;51976;47.332;9.404;2022-11-15T05:47:07;92466.44;;;18.35;44.13
65376;BME280;51976;47.332;9.404;2022-11-15T05:49:36;92472.34;;;18.37;43.96
65376;BME280;51976;47.332;9.404;2022-11-15T05:52:05;92473.59;;;18.40;43.88
65376;BME280;51976;47.332;9.404;2022-11-15T05:54:33;92459.16;;;18.39;43.83
65376;BME280;51976;47.332;9.404;2022-11-15T05:56:59;92454.38;;;18.36;43.87
65376;BME280;51976;47.332;9.404;2022-11-15T05:59:25;92452.09;;;18.38;43.88
65376;BME280;51976;47.332;9.404;2022-11-15T06:01:53;92454.84;;;18.38;43.75
65376;BME280;51976;47.332;9.404;2022-11-15T06:04:18;92448.25;;;18.39;44.00
65376;BME280;51976;47.332;9.404;2022-11-15T06:06:43;92453.25;;;18.37;43.70
65376;BME280;51976;47.332;9.404;2022-11-15T06:09:09;92447.78;;;18.37;43.76
65376;BME280;51976;47.332;9.404;2022-11-15T06:11:34;92456.44;;;18.39;43.56
65376;BME280;51976;47.332;9.404;2022-11-15T06:14:00;92458.03;;;18.40;43.59
65376;BME280;51976;47.332;9.404;2022-11-15T06:16:25;92458.34;;;18.39;43.97
65376;BME280;51976;47.332;9.404;2022-11-15T06:18:50;92452.09;;;18.38;43.68
65376;BME280;51976;47.332;9.404;2022-11-15T06:21:16;92459.38;;;18.34;43.67
65376;BME280;51976;47.332;9.404;2022-11-15T06:23:41;92449.59;;;18.33;44.03
65376;BME280;51976;47.332;9.404;2022-11-15T06:26:06;92446.66;;;18.38;43.99
65376;BME280;51976;47.332;9.404;2022-11-15T06:28:32;92450.63;;;18.41;43.65
65376;BME280;51976;47.332;9.404;2022-11-15T06:31:05;92452.09;;;18.38;43.86
65376;BME280;51976;47.332;9.404;2022-11-15T06:33:31;92449.03;;;18.40;43.70
65376;BME280;51976;47.332;9.404;2022-11-15T06:36:10;92442.44;;;18.41;43.71
65376;BME280;51976;47.332;9.404;2022-11-15T06:38:39;92447.31;;;18.35;43.63
65376;BME280;51976;47.332;9.404;2022-11-15T06:41:07;92447.66;;;18.34;43.60
65376;BME280;51976;47.332;9.404;2022-11-15T06:43:33;92449.16;;;18.31;43.77
65376;BME280;51976;47.332;9.404;2022-11-15T06:46:00;92457.09;;;18.36;43.91
65376;BME280;51976;47.332;9.404;2022-11-15T06:48:26;92445.50;;;18.39;43.80
65376;BME280;51976;47.332;9.404;2022-11-15T06:50:53;92445.50;;;18.39;43.55
65376;BME280;51976;47.332;9.404;2022-11-15T06:53:18;92445.72;;;18.34;43.85
65376;BME280;51976;47.332;9.404;2022-11-15T06:55:43;92443.13;;;18.38;43.73
65376;BME280;51976;47.332;9.404;2022-11-15T06:58:09;92445.19;;;18.41;43.81
65376;BME280;51976;47.332;9.404;2022-11-15T07:00:34;92453.38;;;18.41;43.66
65376;BME280;51976;47.332;9.404;2022-11-15T07:03:00;92443.91;;;18.38;43.74
65376;BME280;51976;47.332;9.404;2022-11-15T07:05:26;92436.19;;;18.40;43.44
65376;BME280;51976;47.332;9.404;2022-11-15T07:07:53;92444.03;;;18.42;43.54
65376;BME280;51976;47.332;9.404;2022-11-15T07:10:19;92445.50;;;18.39;43.59
65376;BME280;51976;47.332;9.404;2022-11-15T07:12:47;92434.72;;;18.43;43.70
65376;BME280;51976;47.332;9.404;2022-11-15T07:15:13;92439.84;;;18.44;43.68
65376;BME280;51976;47.332;9.404;2022-11-15T07:17:38;92432.00;;;18.43;43.68
65376;BME280;51976;47.332;9.404;2022-11-15T07:20:04;92438.59;;;18.42;43.69
65376;BME280;51976;47.332;9.404;2022-11-15T07:22:30;92432.31;;;18.41;43.88
65376;BME280;51976;47.332;9.404;2022-11-15T07:24:55;92437.91;;;18.45;43.64
65376;BME280;51976;47.332;9.404;2022-11-15T07:27:20;92437.00;;;18.41;43.58
65376;BME280;51976;47.332;9.404;2022-11-15T07:29:46;92442.09;;;18.42;43.71
65376;BME280;51976;47.332;9.404;2022-11-15T07:32:11;92429.94;;;18.40;43.32
65376;BME280;51976;47.332;9.404;2022-11-15T07:34:37;92427.75;;;18.33;43.58
65376;BME280;51976;47.332;9.404;2022-11-15T07:37:02;92436.75;;;18.34;43.19
65376;BME280;51976;47.332;9.404;2022-11-15T07:39:27;92428.81;;;18.29;43.27
65376;BME280;51976;47.332;9.404;2022-11-15T07:41:53;92425.97;;;18.25;43.41
65376;BME280;51976;47.332;9.404;2022-11-15T07:44:38;92422.31;;;18.21;43.17
65376;BME280;51976;47.332;9.404;2022-11-15T07:47:03;92435.28;;;18.24;42.91
65376;BME280;51976;47.332;9.404;2022-11-15T07:49:29;92430.50;;;18.33;42.88
65376;BME280;51976;47.332;9.404;2022-11-15T07:51:54;92429.13;;;18.39;42.67
65376;BME280;51976;47.332;9.404;2022-11-15T07:54:20;92425.94;;;18.37;43.08
65376;BME280;51976;47.332;9.404;2022-11-15T07:56:45;92420.50;;;18.37;43.01
65376;BME280;51976;47.332;9.404;2022-11-15T07:59:10;92412.75;;;18.39;43.06
65376;BME280;51976;47.332;9.404;2022-11-15T08:01:36;92421.06;;;18.43;42.99
65376;BME280;51976;47.332;9.404;2022-11-15T08:04:01;92420.63;;;18.41;43.29
65376;BME280;51976;47.332;9.404;2022-11-15T08:06:26;92415.94;;;18.41;43.29
65376;BME280;51976;47.332;9.404;2022-11-15T08:08:52;92409.69;;;18.41;43.16
65376;BME280;51976;47.332;9.404;2022-11-15T08:11:17;92407.75;;;18.41;42.84
65376;BME280;51976;47.332;9.404;2022-11-15T08:13:43;92401.16;;;18.42;43.07
65376;BME280;51976;47.332;9.404;2022-11-15T08:16:08;92406.63;;;18.42;43.25
65376;BME280;51976;47.332;9.404;2022-11-15T08:18:34;92404.34;;;18.44;43.16
65376;BME280;51976;47.332;9.404;2022-11-15T08:21:00;92405.50;;;18.43;43.35
65376;BME280;51976;47.332;9.404;2022-11-15T08:23:26;92401.63;;;18.44;43.42
65376;BME280;51976;47.332;9.404;2022-11-15T08:25:51;92402.09;;;18.46;43.07
65376;BME280;51976;47.332;9.404;2022-11-15T08:28:16;92397.31;;;18.43;43.19
65376;BME280;51976;47.332;9.404;2022-11-15T08:30:42;92389.91;;;18.44;42.97
65376;BME280;51976;47.332;9.404;2022-11-15T08:33:12;92389.47;;;18.42;43.26
65376;BME280;51976;47.332;9.404;2022-11-15T08:35:39;92387.53;;;18.42;43.12
65376;BME280;51976;47.332;9.404;2022-11-15T08:38:05;92390.25;;;18.42;43.20
65376;BME280;51976;47.332;9.404;2022-11-15T08:40:31;92388.66;;;18.41;43.50
65376;BME280;51976;47.332;9.404;2022-11-15T08:42:56;92383.09;;;18.38;43.25
65376;BME280;51976;47.332;9.404;2022-11-15T08:45:23;92383.19;;;18.41;43.36
65376;BME280;51976;47.332;9.404;2022-11-15T08:47:49;92377.41;;;18.43;43.42
65376;BME280;51976;47.332;9.404;2022-11-15T08:50:15;92379.78;;;18.44;43.37
65376;BME280;51976;47.332;9.404;2022-11-15T08:52:40;92372.06;;;18.46;43.08
65376;BME280;51976;47.332;9.404;2022-11-15T08:55:06;92369.34;;;18.46;43.29
65376;BME280;51976;47.332;9.404;2022-11-15T08:57:32;92366.94;;;18.45;43.35
65376;BME280;51976;47.332;9.404;2022-11-15T08:59:58;92375.13;;;18.45;43.21
65376;BME280;51976;47.332;9.404;2022-11-15T09:02:23;92358.41;;;18.46;43.17
65376;BME280;51976;47.332;9.404;2022-11-15T09:04:49;92365.47;;;18.47;43.41
65376;BME280;51976;47.332;9.404;2022-11-15T09:07:14;92357.28;;;18.47;43.18
65376;BME280;51976;47.332;9.404;2022-11-15T09:09:40;92364.66;;;18.47;43.50
65376;BME280;51976;47.332;9.404;2022-11-15T09:12:06;92359.22;;;18.47;43.32
65376;BME280;51976;47.332;9.404;2022-11-15T09:14:33;92364.34;;;18.48;43.26
65376;BME280;51976;47.332;9.404;2022-11-15T09:16:59;92362.41;;;18.49;43.44
65376;BME280;51976;47.332;9.404;2022-11-15T09:19:24;92358.06;;;18.48;43.64
65376;BME280;51976;47.332;9.404;2022-11-15T09:21:50;92350.56;;;18.45;43.53
65376;BME280;51976;47.332;9.404;2022-11-15T09:24:15;92352.63;;;18.48;43.51
65376;BME280;51976;47.332;9.404;2022-11-15T09:26:41;92359.22;;;18.47;43.60
65376;BME280;51976;47.332;9.404;2022-11-15T09:29:06;92364.34;;;18.48;43.57
65376;BME280;51976;47.332;9.404;2022-11-15T09:31:31;92368.31;;;18.51;43.50
65376;BME280;51976;47.332;9.404;2022-11-15T09:33:57;92365.25;;;18.52;43.48
65376;BME280;51976;47.332;9.404;2022-11-15T09:36:22;92368.31;;;18.51;43.32
65376;BME280;51976;47.332;9.404;2022-11-15T09:38:48;92363.31;;;18.53;43.33
65376;BME280;51976;47.332;9.404;2022-11-15T09:41:37;92367.19;;;18.52;43.64
65376;BME280;51976;47.332;9.404;2022-11-15T09:44:37;92366.25;;;18.48;43.68
65376;BME280;51976;47.332;9.404;2022-11-15T09:47:38;92362.97;;;18.54;43.52
65376;BME280;51976;47.332;9.404;2022-11-15T09:50:11;92347.72;;;18.53;43.43
65376;BME280;51976;47.332;9.404;2022-11-15T09:52:41;92343.84;;;18.54;43.78
65376;BME280;51976;47.332;9.404;2022-11-15T09:55:10;92346.25;;;18.56;43.73
65376;BME280;51976;47.332;9.404;2022-11-15T09:57:44;92336.47;;;18.55;43.54
65376;BME280;51976;47.332;9.404;2022-11-15T10:00:21;92339.53;;;18.53;43.86
65376;BME280;51976;47.332;9.404;2022-11-15T10:03:14;92350.91;;;18.55;43.93
65376;BME280;51976;47.332;9.404;2022-11-15T10:05:48;92345.44;;;18.55;43.67
65376;BME280;51976;47.332;9.404;2022-11-15T10:08:44;92350.22;;;18.58;43.80
65376;BME280;51976;47.332;9.404;2022-11-15T10:11:18;92352.16;;;18.58;43.84
65376;BME280;51976;47.332;9.404;2022-11-15T10:13:46;92346.38;;;18.59;43.69
65376;BME280;51976;47.332;9.404;2022-11-15T10:16:37;92342.50;;;18.60;43.57
65376;BME280;51976;47.332;9.404;2022-11-15T10:19:18;92333.28;;;18.65;43.84
65376;BME280;51976;47.332;9.404;2022-11-15T10:22:40;92323.59;;;18.68;43.67
65376;BME280;51976;47.332;9.404;2022-11-15T10:24:45;92324.16;;;18.73;43.42
65376;BME280;51976;47.332;9.404;2022-11-15T10:27:14;92324.63;;;18.75;43.53
65376;BME280;51976;47.332;9.404;2022-11-15T10:29:45;92320.41;;;18.78;43.58
65376;BME280;51976;47.332;9.404;2022-11-15T10:32:12;92322.47;;;18.81;43.64
65376;BME280;51976;47.332;9.404;2022-11-15T10:34:37;92315.63;;;18.87;43.16
65376;BME280;51976;47.332;9.404;2022-11-15T10:37:03;92319.50;;;18.86;43.61
65376;BME280;51976;47.332;9.404;2022-11-15T10:39:29;92308.13;;;18.84;43.48
65376;BME280;51976;47.332;9.404;2022-11-15T10:41:54;92313.22;;;18.85;43.49
65376;BME280;51976;47.332;9.404;2022-11-15T10:44:29;92315.97;;;18.85;43.43
65376;BME280;51976;47.332;9.404;2022-11-15T10:47:06;92305.84;;;18.86;43.71
65376;BME280;51976;47.332;9.404;2022-11-15T10:49:59;92313.22;;;18.85;43.52
65376;BME280;51976;47.332;9.404;2022-11-15T10:52:26;92310.84;;;18.84;43.78
65376;BME280;51976;47.332;9.404;2022-11-15T10:55:21;92310.84;;;18.84;43.83
65376;BME280;51976;47.332;9.404;2022-11-15T10:57:52;92305.72;;;18.82;43.79
65376;BME280;51976;47.332;9.404;2022-11-15T11:00:33;92296.41;;;18.83;44.07
65376;BME280;51976;47.332;9.404;2022-11-15T11:03:02;92296.75;;;18.82;44.02
65376;BME280;51976;47.332;9.404;2022-11-15T11:05:34;92296.75;;;18.82;44.14
65376;BME280;51976;47.332;9.404;2022-11-15T11:08:04;92291.72;;;18.84;43.84
65376;BME280;51976;47.332;9.404;2022-11-15T11:10:30;92286.59;;;18.82;44.05
65376;BME280;51976;47.332;9.404;2022-11-15T11:13:12;92291.28;;;18.82;43.89
65376;BME280;51976;47.332;9.404;2022-11-15T11:15:39;92295.94;;;18.81;43.98
65376;BME280;51976;47.332;9.404;2022-11-15T11:18:33;92295.59;;;18.83;43.95
65376;BME280;51976;47.332;9.404;2022-11-15T11:21:04;92294.00;;;18.82;44.02
65376;BME280;51976;47.332;9.404;2022-11-15T11:23:42;92297.09;;;18.80;44.15
65376;BME280;51976;47.332;9.404;2022-11-15T11:26:29;92292.88;;;18.83;43.98
65376;BME280;51976;47.332;9.404;2022-11-15T11:29:38;92294.00;;;18.82;44.00
65376;BME280;51976;47.332;9.404;2022-11-15T11:32:22;92286.84;;;18.77;44.22
65376;BME280;51976;47.332;9.404;2022-11-15T11:35:12;92289.56;;;18.77;44.54
65376;BME280;51976;47.332;9.404;2022-11-15T11:37:52;92291.50;;;18.77;44.55
65376;BME280;51976;47.332;9.404;2022-11-15T11:40:33;92287.44;;;18.71;44.44
65376;BME280;51976;47.332;9.404;2022-11-15T11:43:26;92289.81;;;18.72;44.56
65376;BME280;51976;47.332;9.404;2022-11-15T11:48:58;92284.59;;;18.67;44.61
65376;BME280;51976;47.332;9.404;2022-11-15T11:51:39;92296.88;;;18.73;44.50
65376;BME280;51976;47.332;9.404;2022-11-15T11:54:17;92289.03;;;18.72;44.61
65376;BME280;51976;47.332;9.404;2022-11-15T11:56:45;92289.81;;;18.72;44.37
65376;BME280;51976;47.332;9.404;2022-11-15T11:59:19;92289.72;;;18.69;44.77
65376;BME280;51976;47.332;9.404;2022-11-15T12:01:46;92287.78;;;18.69;44.57
65376;BME280;51976;47.332;9.404;2022-11-15T12:04:34;92289.81;;;18.72;44.40
65376;BME280;51976;47.332;9.404;2022-11-15T12:07:15;92297.44;;;18.67;44.77
65376;BME280;51976;47.332;9.404;2022-11-15T12:09:51;92286.41;;;18.63;44.82
65376;BME280;51976;47.332;9.404;2022-11-15T12:12:36;92287.56;;;18.62;44.71
65376;BME280;51976;47.332;9.404;2022-11-15T12:15:13;92292.09;;;18.58;45.03
65376;BME280;51976;47.332;9.404;2022-11-15T12:17:40;92284.59;;;18.55;44.88
65376;BME280;51976;47.332;9.404;2022-11-15T12:20:18;92289.06;;;18.59;44.99
65376;BME280;51976;47.332;9.404;2022-11-15T12:22:49;92288.59;;;18.57;44.89
65376;BME280;51976;47.332;9.404;2022-11-15T12:25:27;92290.41;;;18.53;45.01
65376;BME280;51976;47.332;9.404;2022-11-15T12:28:12;92286.53;;;18.54;45.03
65376;BME280;51976;47.332;9.404;2022-11-15T12:30:49;92279.03;;;18.51;45.05
65376;BME280;51976;47.332;9.404;2022-11-15T12:33:37;92284.50;;;18.51;44.91
65376;BME280;51976;47.332;9.404;2022-11-15T12:36:09;92278.34;;;18.54;44.96
65376;BME280;51976;47.332;9.404;2022-11-15T12:39:07;92275.16;;;18.52;45.10
65376;BME280;51976;47.332;9.404;2022-11-15T12:41:37;92274.94;;;18.45;45.08
65376;BME280;51976;47.332;9.404;2022-11-15T12:44:04;92278.94;;;18.48;44.98
65376;BME280;51976;47.332;9.404;2022-11-15T12:47:00;92273.56;;;18.51;45.02
65376;BME280;51976;47.332;9.404;2022-11-15T12:49:47;92272.34;;;18.49;45.13
65376;BME280;51976;47.332;9.404;2022-11-15T12:52:13;92271.88;;;18.47;45.40
65376;BME280;51976;47.332;9.404;2022-11-15T12:54:57;92265.16;;;18.44;45.35
65376;BME280;51976;47.332;9.404;2022-11-15T12:57:31;92264.59;;;18.51;45.18
65376;BME280;51976;47.332;9.404;2022-11-15T12:59:59;92264.81;;;18.46;45.21
65376;BME280;51976;47.332;9.404;2022-11-15T13:02:33;92261.31;;;18.45;45.02
65376;BME280;51976;47.332;9.404;2022-11-15T13:08:07;92255.50;;;18.47;45.20
65376;BME280;51976;47.332;9.404;2022-11-15T13:10:33;92256.19;;;18.44;45.31
65376;BME280;51976;47.332;9.404;2022-11-15T13:13:01;92254.59;;;18.43;45.14
65376;BME280;51976;47.332;9.404;2022-11-15T13:15:56;92249.94;;;18.43;45.38
65376;BME280;51976;47.332;9.404;2022-11-15T13:18:27;92246.53;;;18.46;45.25
65376;BME280;51976;47.332;9.404;2022-11-15T13:20:53;92244.94;;;18.45;45.29
65376;BME280;51976;47.332;9.404;2022-11-15T13:23:21;92239.03;;;18.43;45.30
65376;BME280;51976;47.332;9.404;2022-11-15T13:26:12;92230.38;;;18.41;45.10
65376;BME280;51976;47.332;9.404;2022-11-15T13:28:45;92221.84;;;18.43;45.16
65376;BME280;51976;47.332;9.404;2022-11-15T13:31:36;92211.72;;;18.43;45.44